Time;durP1;ratioP1;P1;durP2;ratioP2;P2;SDS_P1;SDS_P2;PMS_P1;PMS_P2;Temp;Humidity;BMP_temperature;BMP_pressure;BME280_temperature;BME280_humidity;BME280_pressure;Samples;Min_cycle;Max_cycle;Signal;HPM_P1;HPM_P2
2022/11/06 00:01:12;;;;;;;17.03;10.87;;;;;;;11.30;80.09;100718.47;5033770;28;20098;-62
2022/11/06 00:03:40;;;;;;;21.77;15.03;;;;;;;11.29;80.24;100709.25;5067961;28;20551;-62
2022/11/06 00:08:55;;;;;;;29.07;15.63;;;;;;;11.24;80.20;100700.03;5047338;28;20511;-63
2022/11/06 00:11:21;;;;;;;26.40;15.43;;;;;;;11.24;80.20;100705.63;5036574;28;20061;-62
2022/11/06 00:13:51;;;;;;;28.23;15.83;;;;;;;11.22;80.52;100708.72;5036020;28;20049;-62
2022/11/06 00:16:19;;;;;;;32.50;12.13;;;;;;;11.19;80.54;100703.66;5033897;28;20048;-63
2022/11/06 00:18:46;;;;;;;33.70;17.73;;;;;;;11.26;80.46;100701.44;5041145;28;20073;-61
2022/11/06 00:21:18;;;;;;;19.60;10.43;;;;;;;11.27;80.47;100705.06;5040520;28;20048;-62
2022/11/06 00:23:46;;;;;;;24.47;14.67;;;;;;;11.27;80.43;100703.09;5036551;28;20060;-62
2022/11/06 00:26:16;;;;;;;26.40;16.37;;;;;;;11.34;80.24;100706.44;5050316;28;20423;-62
2022/11/06 00:28:43;;;;;;;26.40;14.82;;;;;;;11.37;80.28;100699.44;5043000;28;20052;-62
2022/11/06 00:31:16;;;;;;;19.97;12.37;;;;;;;11.32;80.51;100691.09;5034639;28;20492;-61
2022/11/06 00:33:43;;;;;;;28.27;14.40;;;;;;;11.38;80.45;100701.13;5039404;28;20056;-62
2022/11/06 00:36:13;;;;;;;22.90;13.17;;;;;;;11.38;80.55;100695.53;5040795;28;20053;-62
2022/11/06 00:38:40;;;;;;;31.63;16.95;;;;;;;11.44;80.36;100713.97;5043386;28;20052;-62
2022/11/06 00:41:11;;;;;;;23.77;14.50;;;;;;;11.47;80.12;100705.03;5036520;28;20049;-62
2022/11/06 00:43:37;;;;;;;22.93;13.00;;;;;;;11.56;80.19;100713.69;5040906;28;20050;-61
2022/11/06 00:46:10;;;;;;;29.07;16.70;;;;;;;11.59;79.71;100702.78;5045886;28;20447;-62
2022/11/06 00:48:38;;;;;;;39.47;19.17;;;;;;;11.73;79.54;100708.59;5045642;28;20052;-62
2022/11/06 00:51:06;;;;;;;28.40;14.20;;;;;;;11.84;79.16;100715.03;5034035;28;20049;-62
2022/11/06 00:53:32;;;;;;;31.33;18.17;;;;;;;11.87;78.89;100714.47;5045861;28;20045;-62
2022/11/06 00:56:04;;;;;;;31.40;18.07;;;;;;;11.85;78.71;100705.50;5037121;28;20053;-61
2022/11/06 00:58:31;;;;;;;31.37;16.57;;;;;;;11.88;78.60;100713.31;5048333;28;20048;-62
2022/11/06 01:01:14;;;;;;;19.40;12.53;;;;;;;11.76;78.21;100693.19;5042986;28;20431;-62
2022/11/06 01:03:43;;;;;;;25.57;13.27;;;;;;;11.87;78.23;100706.06;5047369;28;20045;-62
2022/11/06 01:06:17;;;;;;;19.10;12.65;;;;;;;11.90;78.13;100711.09;5039708;28;20045;-61
2022/11/06 01:08:44;;;;;;;26.07;16.27;;;;;;;11.98;77.82;100715.25;5051682;28;20052;-62
2022/11/06 01:11:17;;;;;;;30.07;15.33;;;;;;;12.01;77.41;100714.69;5039443;28;20076;-61
2022/11/06 01:13:45;;;;;;;23.23;14.00;;;;;;;12.03;77.28;100712.41;5033211;28;20608;-62
2022/11/06 01:16:14;;;;;;;22.83;12.40;;;;;;;12.07;77.13;100708.78;5041968;28;20041;-63
2022/11/06 01:18:43;;;;;;;21.63;13.47;;;;;;;12.14;76.82;100713.25;5042208;28;20064;-64
2022/11/06 01:21:13;;;;;;;23.00;15.83;;;;;;;12.20;76.48;100706.47;5039043;28;20086;-63
2022/11/06 01:23:41;;;;;;;21.40;13.83;;;;;;;12.23;76.31;100705.91;5041727;28;20041;-63
2022/11/06 01:26:10;;;;;;;29.67;16.70;;;;;;;12.26;76.01;100699.72;5051848;28;20419;-63
2022/11/06 01:28:38;;;;;;;30.43;15.23;;;;;;;12.27;76.07;100704.19;5035732;28;20419;-63
2022/11/06 01:31:13;;;;;;;26.17;14.97;;;;;;;12.28;76.04;100703.91;5049344;28;20072;-64
2022/11/06 01:33:40;;;;;;;28.80;18.30;;;;;;;12.23;76.07;100701.13;5045229;28;20045;-63
2022/11/06 01:36:12;;;;;;;37.50;18.63;;;;;;;12.26;75.94;100699.72;5046716;28;20050;-63
2022/11/06 01:38:40;;;;;;;33.73;18.37;;;;;;;12.29;75.90;100704.75;5044184;28;20409;-63
2022/11/06 01:41:08;;;;;;;30.37;17.53;;;;;;;12.28;76.11;100697.47;5042339;28;20040;-64
2022/11/06 01:43:53;;;;;;;35.73;17.03;;;;;;;12.09;76.17;100700.09;5042380;28;20058;-63
2022/11/06 01:46:25;;;;;;;24.30;15.97;;;;;;;12.07;76.24;100708.78;5041771;28;20060;-63
2022/11/06 01:48:56;;;;;;;28.47;15.97;;;;;;;12.13;76.26;100697.53;5040589;28;20053;-64
2022/11/06 01:51:27;;;;;;;16.67;10.93;;;;;;;12.09;76.18;100694.47;5046552;28;20052;-64
2022/11/06 01:53:54;;;;;;;25.20;15.50;;;;;;;12.04;76.31;100698.16;5052968;28;20048;-66
2022/11/06 01:56:22;;;;;;;24.83;11.93;;;;;;;11.99;76.50;100695.38;5034749;28;20125;-64
2022/11/06 01:58:52;;;;;;;26.17;14.40;;;;;;;11.92;76.49;100683.66;5036076;28;20041;-64
2022/11/06 02:01:19;;;;;;;9.82;7.40;;;;;;;11.89;76.77;100695.41;5039512;28;20075;-64
2022/11/06 02:03:54;;;;;;;15.17;8.67;;;;;;;11.83;76.62;100686.19;5040022;28;20049;-64
2022/11/06 02:06:21;;;;;;;19.27;11.97;;;;;;;11.88;76.56;100692.91;5044277;28;20925;-64
2022/11/06 02:08:47;;;;;;;20.00;10.43;;;;;;;11.84;76.59;100695.44;5040565;28;20053;-63
2022/11/06 02:11:14;;;;;;;12.93;6.93;;;;;;;11.82;76.70;100681.69;5038606;28;20053;-64
2022/11/06 02:14:04;;;;;;;23.70;14.63;;;;;;;11.85;76.54;100695.13;5042025;28;20049;-64
2022/11/06 02:16:55;;;;;;;22.20;13.13;;;;;;;11.76;76.53;100685.66;5043225;28;20057;-63
2022/11/06 02:19:37;;;;;;;21.53;11.87;;;;;;;11.82;76.49;100686.44;5035378;28;20045;-63
2022/11/06 02:22:29;;;;;;;21.70;11.10;;;;;;;11.78;76.51;100693.75;5037107;28;20387;-63
2022/11/06 02:25:07;;;;;;;16.60;8.40;;;;;;;11.70;76.69;100691.56;5033635;28;20041;-63
2022/11/06 02:27:36;;;;;;;15.35;9.95;;;;;;;11.68;76.89;100679.78;5040959;28;20056;-63
2022/11/06 02:30:11;;;;;;;12.77;9.93;;;;;;;11.71;76.91;100684.81;5040258;28;20488;-63
2022/11/06 02:32:44;;;;;;;12.63;8.70;;;;;;;11.77;76.72;100676.13;5040791;28;20045;-63
2022/11/06 02:35:29;;;;;;;9.33;7.70;;;;;;;11.79;76.76;100687.03;5043673;28;20048;-63
2022/11/06 02:38:10;;;;;;;23.57;11.00;;;;;;;11.72;76.77;100672.50;5039080;28;20045;-63
2022/11/06 02:40:43;;;;;;;20.23;11.77;;;;;;;11.79;76.71;100679.47;5039962;28;20045;-62
2022/11/06 02:43:13;;;;;;;15.90;10.47;;;;;;;11.73;76.74;100666.63;5041406;28;20504;-63
2022/11/06 02:45:54;;;;;;;18.35;9.10;;;;;;;11.55;76.90;100679.25;5041639;28;20060;-62
2022/11/06 02:48:27;;;;;;;14.73;9.20;;;;;;;11.49;77.28;100668.41;5048837;28;20086;-64
2022/11/06 02:50:58;;;;;;;17.83;8.37;;;;;;;11.47;77.41;100671.47;5038240;28;20399;-63
2022/11/06 02:53:25;;;;;;;18.90;7.83;;;;;;;11.45;77.55;100673.69;5054102;28;20052;-63
2022/11/06 02:55:56;;;;;;;14.07;9.00;;;;;;;11.43;77.17;100673.16;5049823;28;20044;-63
2022/11/06 02:58:26;;;;;;;18.93;10.43;;;;;;;11.50;77.09;100659.72;5041282;28;20060;-62
2022/11/06 03:01:01;;;;;;;18.73;11.35;;;;;;;11.55;76.76;100656.88;5036737;28;20045;-63
2022/11/06 03:03:35;;;;;;;20.63;10.63;;;;;;;11.62;76.68;100663.03;5035508;28;20523;-63
2022/11/06 03:06:09;;;;;;;15.23;9.80;;;;;;;11.64;76.37;100659.94;5043021;28;20045;-62
2022/11/06 03:08:43;;;;;;;17.30;10.63;;;;;;;11.68;76.22;100669.44;5037161;28;20129;-64
2022/11/06 03:11:28;;;;;;;12.53;7.80;;;;;;;11.63;76.41;100661.06;5034259;28;20830;-62
2022/11/06 03:14:10;;;;;;;15.60;8.47;;;;;;;11.66;76.23;100646.53;5034578;28;20053;-62
2022/11/06 03:16:43;;;;;;;18.40;9.27;;;;;;;11.68;76.51;100643.44;5034570;28;20061;-63
2022/11/06 03:19:22;;;;;;;13.33;9.27;;;;;;;11.72;76.32;100647.31;5032562;28;20049;-62
2022/11/06 03:22:01;;;;;;;19.58;11.35;;;;;;;11.71;76.26;100648.44;5036000;28;20049;-61
2022/11/06 03:24:32;;;;;;;15.87;10.07;;;;;;;11.77;76.18;100652.91;5038954;28;20046;-61
2022/11/06 03:27:11;;;;;;;14.83;9.00;;;;;;;11.77;75.88;100636.13;5031527;28;20112;-61
2022/11/06 03:29:40;;;;;;;17.20;8.67;;;;;;;11.79;75.83;100631.06;5035091;28;20041;-62
2022/11/06 03:32:22;;;;;;;28.13;13.50;;;;;;;11.82;75.67;100624.91;5033149;28;20056;-62
2022/11/06 03:35:12;;;;;;;22.37;11.07;;;;;;;11.82;75.71;100634.13;5029800;28;20041;-62
2022/11/06 03:37:45;;;;;;;14.23;7.53;;;;;;;11.88;75.99;100632.19;5032667;28;20420;-62
2022/11/06 03:40:16;;;;;;;16.40;9.43;;;;;;;11.89;76.17;100625.44;5039728;28;20041;-62
2022/11/06 03:42:45;;;;;;;9.43;7.57;;;;;;;11.88;76.23;100614.56;5040055;28;20057;-62
2022/11/06 03:45:18;;;;;;;21.27;13.20;;;;;;;11.77;76.02;100603.38;5044059;28;20041;-62
2022/11/06 03:47:48;;;;;;;13.90;9.30;;;;;;;11.88;76.21;100617.34;5048500;28;20053;-62
2022/11/06 03:50:23;;;;;;;13.30;7.93;;;;;;;11.82;76.43;100599.72;5050118;28;20049;-62
2022/11/06 03:52:56;;;;;;;14.63;9.90;;;;;;;11.82;76.12;100610.91;5048836;28;20048;-62
2022/11/06 03:55:39;;;;;;;14.67;8.93;;;;;;;11.42;77.81;100593.19;5039524;28;20054;-62
2022/11/06 03:58:15;;;;;;;13.17;7.80;;;;;;;11.23;78.66;100600.53;5046512;28;20084;-62
2022/11/06 04:00:43;;;;;;;17.63;12.20;;;;;;;11.13;79.27;100615.34;5046533;28;20052;-62
2022/11/06 04:03:23;;;;;;;16.03;10.10;;;;;;;10.96;80.20;100615.66;5041435;28;20053;-63
2022/11/06 04:06:11;;;;;;;21.03;10.80;;;;;;;10.89;80.36;100589.97;5037754;28;20481;-62
2022/11/06 04:14:16;;;;;;;9.70;6.90;;;;;;;11.01;81.01;100607.28;5047554;28;20275;-63
2022/11/06 04:16:49;;;;;;;11.90;7.90;;;;;;;11.04;80.88;100609.53;5048895;28;20054;-63
2022/11/06 04:19:18;;;;;;;19.87;8.90;;;;;;;11.08;81.15;100595.81;5038593;28;20060;-62
2022/11/06 04:22:03;;;;;;;15.15;9.23;;;;;;;11.16;80.94;100609.19;5042700;28;20396;-62
2022/11/06 04:27:36;;;;;;;10.00;7.47;;;;;;;11.26;81.31;100595.19;5049014;28;20045;-63
2022/11/06 04:30:09;;;;;;;9.70;6.23;;;;;;;11.32;81.08;100579.25;5043092;28;20053;-62
2022/11/06 04:32:55;;;;;;;10.37;6.70;;;;;;;11.32;81.23;100562.47;5039219;28;20053;-62
2022/11/06 04:36:10;;;;;;;18.65;10.18;;;;;;;11.40;81.16;100528.31;5041565;28;20057;-63
2022/11/06 04:38:52;;;;;;;18.20;10.87;;;;;;;11.18;81.87;100472.81;5023770;28;20049;-62
2022/11/06 04:41:33;;;;;;;12.07;7.57;;;;;;;11.18;82.22;100497.97;5037668;28;20045;-62
2022/11/06 04:44:18;;;;;;;15.20;8.10;;;;;;;11.17;82.37;100538.19;5033323;28;20073;-62
2022/11/06 04:46:48;;;;;;;11.20;6.93;;;;;;;11.32;82.15;100562.47;5041441;28;20064;-62
2022/11/06 04:49:17;;;;;;;7.63;5.53;;;;;;;11.38;81.75;100561.31;5045216;28;20056;-62
2022/11/06 04:51:45;;;;;;;17.33;9.57;;;;;;;11.57;81.54;100567.94;5041930;28;20071;-62
2022/11/06 04:54:13;;;;;;;14.30;9.10;;;;;;;11.56;81.37;100545.88;5044426;28;20400;-62
2022/11/06 04:56:41;;;;;;;8.57;6.23;;;;;;;11.70;81.39;100562.88;5044546;28;20060;-62
2022/11/06 04:59:15;;;;;;;11.53;6.90;;;;;;;11.71;81.26;100559.75;5034794;28;20049;-62
2022/11/06 05:01:43;;;;;;;10.30;6.73;;;;;;;11.82;81.26;100563.34;5047915;28;20053;-62
2022/11/06 05:04:11;;;;;;;12.83;8.13;;;;;;;11.86;81.54;100544.88;5049434;28;20106;-61
2022/11/06 05:06:38;;;;;;;10.40;6.83;;;;;;;11.98;81.50;100547.34;5040790;28;20396;-62
2022/11/06 05:09:05;;;;;;;11.33;5.60;;;;;;;12.04;81.30;100546.19;5046286;28;20046;-63
2022/11/06 05:11:31;;;;;;;11.43;6.83;;;;;;;12.11;81.46;100540.25;5038017;28;20061;-63
2022/11/06 05:13:58;;;;;;;9.53;6.87;;;;;;;12.20;81.55;100552.47;5045733;28;20060;-62
2022/11/06 05:16:25;;;;;;;17.47;7.93;;;;;;;12.28;81.29;100551.88;5054028;28;20063;-63
2022/11/06 05:18:52;;;;;;;14.13;8.93;;;;;;;12.37;80.96;100566.91;5048238;28;20052;-62
2022/11/06 05:24:04;;;;;;;11.53;6.40;;;;;;;12.44;81.04;100556.19;5040892;28;20530;-61
2022/11/06 05:26:31;;;;;;;5.10;4.50;;;;;;;12.44;80.94;100545.00;5046974;28;20041;-63
2022/11/06 05:28:58;;;;;;;9.27;6.97;;;;;;;12.36;81.11;100551.25;5039843;28;20053;-63
2022/11/06 05:31:25;;;;;;;9.80;7.50;;;;;;;12.36;81.24;100548.44;5038910;28;20052;-63
2022/11/06 05:33:52;;;;;;;7.00;4.93;;;;;;;12.31;81.36;100540.94;5047733;28;20410;-63
2022/11/06 05:36:19;;;;;;;10.40;6.67;;;;;;;12.28;81.60;100546.28;5044907;28;20499;-63
2022/11/06 05:38:46;;;;;;;12.60;7.83;;;;;;;12.23;81.84;100554.69;5035628;28;20731;-64
2022/11/06 05:41:13;;;;;;;14.07;7.80;;;;;;;12.19;81.88;100545.22;5037344;28;20057;-63
2022/11/06 05:43:40;;;;;;;20.10;8.70;;;;;;;12.20;81.99;100555.28;5050322;28;20080;-64
2022/11/06 05:46:07;;;;;;;12.80;6.97;;;;;;;12.19;81.94;100548.84;5038761;28;20439;-63
2022/11/06 05:48:54;;;;;;;11.67;7.17;;;;;;;12.19;82.43;100548.03;5031984;28;20099;-63
2022/11/06 05:51:21;;;;;;;8.10;6.13;;;;;;;12.17;82.32;100551.13;5041022;28;20045;-64
2022/11/06 05:53:47;;;;;;;13.47;8.20;;;;;;;12.31;82.33;100556.91;5048947;28;20068;-64
2022/11/06 05:56:14;;;;;;;14.90;8.87;;;;;;;12.12;82.93;100541.91;5047676;28;20052;-64
2022/11/06 05:58:42;;;;;;;14.10;7.40;;;;;;;12.06;83.87;100549.50;5040381;28;20492;-64
2022/11/06 06:01:10;;;;;;;16.90;10.10;;;;;;;12.00;84.48;100547.84;5048310;28;20050;-63
2022/11/06 06:03:36;;;;;;;10.93;8.60;;;;;;;11.94;85.39;100547.06;5039852;28;20063;-63
2022/11/06 06:06:03;;;;;;;20.00;10.77;;;;;;;11.90;86.04;100537.59;5043112;28;20037;-63
2022/11/06 06:08:30;;;;;;;14.63;10.63;;;;;;;11.91;86.65;100555.22;5043067;28;20049;-62
2022/11/06 06:10:57;;;;;;;12.50;9.27;;;;;;;11.97;86.87;100568.88;5041520;28;20056;-63
2022/11/06 06:13:24;;;;;;;21.03;11.30;;;;;;;12.03;86.81;100567.75;5039352;28;20538;-61
2022/11/06 06:15:50;;;;;;;7.37;6.70;;;;;;;12.07;86.54;100557.63;5043536;28;20041;-61
2022/11/06 06:18:17;;;;;;;12.63;9.03;;;;;;;12.12;86.79;100547.50;5036045;28;20080;-63
2022/11/06 06:20:44;;;;;;;11.43;9.27;;;;;;;12.13;87.02;100561.22;5035979;28;20052;-63
2022/11/06 06:23:11;;;;;;;15.17;12.50;;;;;;;12.12;87.29;100553.13;5032200;28;20084;-64
2022/11/06 06:25:37;;;;;;;16.03;10.63;;;;;;;12.07;87.75;100556.78;5033478;28;20042;-62
2022/11/06 06:28:04;;;;;;;11.37;10.13;;;;;;;12.03;88.20;100556.53;5033975;28;20071;-62
2022/11/06 06:30:31;;;;;;;11.83;9.30;;;;;;;12.02;88.58;100563.25;5036077;28;20052;-63
2022/11/06 06:33:03;;;;;;;19.23;13.67;;;;;;;12.04;88.72;100565.78;5037230;28;20045;-62
2022/11/06 06:35:30;;;;;;;13.57;10.87;;;;;;;12.05;89.13;100576.66;5040853;28;20060;-62
2022/11/06 06:37:57;;;;;;;21.30;14.10;;;;;;;12.02;89.27;100559.63;5034024;28;20052;-61
2022/11/06 06:40:24;;;;;;;13.97;11.97;;;;;;;12.06;89.48;100575.53;5034119;28;20060;-62
2022/11/06 06:42:54;;;;;;;24.43;17.20;;;;;;;12.02;89.76;100560.44;5036645;28;20060;-60
2022/11/06 06:45:21;;;;;;;14.38;12.10;;;;;;;12.05;89.76;100576.66;5032534;28;20037;-61
2022/11/06 06:47:47;;;;;;;23.90;15.83;;;;;;;12.17;89.58;100584.72;5033173;28;20053;-61
2022/11/06 06:50:14;;;;;;;21.37;14.03;;;;;;;12.23;88.99;100588.28;5034238;28;20082;-62
2022/11/06 06:52:41;;;;;;;23.50;14.77;;;;;;;12.20;89.38;100592.50;5039892;28;20049;-61
2022/11/06 06:55:08;;;;;;;19.23;15.80;;;;;;;12.22;89.39;100595.03;5038138;28;20526;-61
2022/11/06 06:57:34;;;;;;;21.97;18.63;;;;;;;12.34;88.82;100603.88;5044762;28;20380;-62
2022/11/06 07:00:01;;;;;;;22.37;17.43;;;;;;;12.46;88.46;100609.97;5036346;28;20051;-63
2022/11/06 07:02:28;;;;;;;27.83;18.23;;;;;;;12.54;88.19;100617.75;5035182;28;20058;-63
2022/11/06 07:04:55;;;;;;;23.27;17.70;;;;;;;12.65;87.98;100623.25;5031533;28;20144;-61
2022/11/06 07:07:22;;;;;;;20.37;17.00;;;;;;;12.70;87.61;100628.84;5028106;28;20053;-62
2022/11/06 07:09:49;;;;;;;24.87;17.67;;;;;;;12.83;87.89;100641.34;5031871;28;20388;-64
2022/11/06 07:12:16;;;;;;;24.93;16.87;;;;;;;12.92;87.69;100657.25;5036967;28;20057;-62
2022/11/06 07:14:43;;;;;;;20.37;16.20;;;;;;;12.90;87.42;100665.09;5045962;28;20056;-62
2022/11/06 07:17:09;;;;;;;24.30;17.50;;;;;;;12.93;87.51;100658.06;5038753;28;20054;-62
2022/11/06 07:19:39;;;;;;;23.67;18.15;;;;;;;12.95;87.67;100662.22;5043130;28;20051;-62
2022/11/06 07:22:06;;;;;;;22.27;17.63;;;;;;;13.00;87.54;100664.19;5052129;28;20052;-62
2022/11/06 07:24:33;;;;;;;20.10;16.57;;;;;;;12.98;87.54;100670.06;5053013;28;20045;-62
2022/11/06 07:26:59;;;;;;;24.03;15.50;;;;;;;12.98;87.62;100667.25;5039477;28;20400;-62
2022/11/06 07:29:26;;;;;;;16.63;14.90;;;;;;;13.03;87.34;100686.84;5047758;28;20087;-61
2022/11/06 07:31:53;;;;;;;20.03;16.30;;;;;;;13.01;87.49;100691.91;5036810;28;20060;-62
2022/11/06 07:34:20;;;;;;;19.50;15.97;;;;;;;13.02;87.21;100690.78;5037680;28;20056;-63
2022/11/06 07:36:47;;;;;;;22.17;17.00;;;;;;;12.98;87.30;100684.06;5038165;28;20060;-61
2022/11/06 07:39:14;;;;;;;21.20;15.00;;;;;;;13.08;87.52;100690.72;5037158;28;20057;-62
2022/11/06 07:41:40;;;;;;;16.73;15.03;;;;;;;13.10;87.57;100696.91;5036725;28;20049;-63
2022/11/06 07:44:07;;;;;;;25.17;16.37;;;;;;;13.13;87.41;100701.88;5043738;28;20060;-63
2022/11/06 07:46:34;;;;;;;17.03;15.33;;;;;;;13.05;87.35;100692.97;5053501;28;20041;-62
2022/11/06 07:49:01;;;;;;;22.90;16.20;;;;;;;13.13;87.42;100693.47;5044349;28;20377;-61
2022/11/06 07:51:28;;;;;;;18.33;15.90;;;;;;;13.13;87.62;100702.75;5042115;28;20496;-62
2022/11/06 07:53:54;;;;;;;16.80;14.73;;;;;;;13.13;87.48;100699.94;5038980;28;20056;-62
2022/11/06 07:56:21;;;;;;;18.87;16.97;;;;;;;13.16;87.43;100707.78;5042570;28;20048;-62
2022/11/06 07:58:49;;;;;;;18.77;15.67;;;;;;;13.19;87.37;100717.53;5043328;28;20068;-62
2022/11/06 08:01:17;;;;;;;18.00;16.17;;;;;;;13.25;87.24;100722.00;5044395;28;20048;-62
2022/11/06 08:03:45;;;;;;;19.53;16.63;;;;;;;13.27;87.34;100726.19;5044756;28;20132;-61
2022/11/06 08:06:13;;;;;;;19.30;16.87;;;;;;;13.31;87.37;100734.88;5039027;28;20045;-62
2022/11/06 08:08:39;;;;;;;20.07;16.87;;;;;;;13.32;87.67;100730.09;5048177;28;20411;-63
2022/11/06 08:11:09;;;;;;;18.23;16.37;;;;;;;13.39;87.37;100734.22;5044804;28;20061;-64
2022/11/06 08:13:37;;;;;;;19.42;16.38;;;;;;;13.37;87.35;100728.09;5035225;28;20060;-62
2022/11/06 08:16:08;;;;;;;17.23;15.63;;;;;;;13.43;87.31;100726.88;5037749;28;20527;-62
2022/11/06 08:18:36;;;;;;;19.77;15.70;;;;;;;13.49;87.44;100736.09;5035676;28;20411;-62
2022/11/06 08:21:03;;;;;;;17.23;15.43;;;;;;;13.49;87.56;100739.72;5042682;28;20522;-62
2022/11/06 08:23:30;;;;;;;20.93;15.20;;;;;;;13.55;87.81;100745.31;5045193;28;20525;-62
2022/11/06 08:25:59;;;;;;;20.60;15.47;;;;;;;13.61;87.65;100736.53;5039720;28;20068;-62
2022/11/06 08:28:27;;;;;;;17.77;15.82;;;;;;;13.68;87.94;100747.41;5049208;28;20064;-62
2022/11/06 08:30:54;;;;;;;20.43;15.07;;;;;;;13.71;87.84;100753.28;5036956;28;20065;-62
2022/11/06 08:33:23;;;;;;;16.77;15.00;;;;;;;13.78;87.83;100758.53;5034041;28;20446;-62
2022/11/06 08:35:49;;;;;;;19.60;14.37;;;;;;;13.81;87.91;100760.75;5044818;28;20041;-62
2022/11/06 08:38:16;;;;;;;18.93;13.37;;;;;;;13.86;88.08;100769.09;5046055;28;20063;-62
2022/11/06 08:40:43;;;;;;;17.90;12.47;;;;;;;13.89;87.86;100774.13;5039806;28;20530;-62
2022/11/06 08:43:18;;;;;;;17.60;13.60;;;;;;;14.01;88.05;100779.31;5053482;28;20060;-63
2022/11/06 08:45:45;;;;;;;18.37;13.43;;;;;;;14.03;88.04;100777.06;5049601;28;20041;-62
2022/11/06 08:48:12;;;;;;;17.10;13.07;;;;;;;14.10;88.20;100771.09;5035246;28;20046;-63
2022/11/06 08:50:40;;;;;;;46.70;22.43;;;;;;;14.28;88.16;100789.94;5037004;28;20053;-63
2022/11/06 08:53:07;;;;;;;17.37;14.43;;;;;;;14.35;88.07;100789.59;5054255;28;20076;-62
2022/11/06 08:55:37;;;;;;;18.57;13.40;;;;;;;14.35;87.96;100796.03;5054674;28;20055;-62
2022/11/06 08:58:05;;;;;;;20.45;12.98;;;;;;;14.35;87.83;100789.59;5048770;28;20443;-62
2022/11/06 09:00:32;;;;;;;18.63;12.90;;;;;;;14.37;88.10;100790.13;5035016;28;20057;-63
2022/11/06 09:03:01;;;;;;;19.43;12.27;;;;;;;14.38;87.90;100789.00;5043291;28;20049;-62
2022/11/06 09:05:29;;;;;;;18.65;12.00;;;;;;;14.43;88.13;100783.31;5037016;28;20076;-62
2022/11/06 09:07:57;;;;;;;14.38;12.02;;;;;;;14.51;88.51;100781.84;5038818;28;20053;-62
2022/11/06 09:10:25;;;;;;;15.63;12.02;;;;;;;14.71;88.74;100786.34;5053650;28;20049;-62
2022/11/06 09:12:52;;;;;;;16.63;10.87;;;;;;;15.00;88.66;100783.38;5054664;28;20048;-62
2022/11/06 09:15:19;;;;;;;14.60;12.60;;;;;;;15.49;89.03;100779.22;5042320;28;20049;-62
2022/11/06 09:17:48;;;;;;;16.73;11.43;;;;;;;15.69;88.00;100773.25;5048095;28;20057;-65
2022/11/06 09:20:17;;;;;;;14.85;11.05;;;;;;;15.75;87.64;100786.06;5036712;28;20129;-63
2022/11/06 09:22:45;;;;;;;13.52;10.77;;;;;;;15.53;87.44;100786.72;5042583;28;20071;-62
2022/11/06 09:25:13;;;;;;;15.82;12.32;;;;;;;15.54;87.16;100793.19;5044097;28;20049;-63
2022/11/06 09:27:44;;;;;;;16.33;11.18;;;;;;;15.34;86.71;100788.75;5040665;28;20052;-62
2022/11/06 09:30:14;;;;;;;19.15;12.88;;;;;;;15.16;87.12;100788.47;5033659;28;20046;-63
2022/11/06 09:32:56;;;;;;;14.75;10.93;;;;;;;15.17;86.88;100795.75;5056728;28;20059;-62
2022/11/06 09:35:25;;;;;;;12.88;8.38;;;;;;;15.15;86.63;100797.22;5048135;28;20124;-63
2022/11/06 09:37:52;;;;;;;15.52;11.52;;;;;;;15.20;86.98;100799.09;5042309;28;20049;-64
2022/11/06 09:40:22;;;;;;;16.48;11.52;;;;;;;15.22;86.95;100796.84;5036834;28;20054;-62
2022/11/06 09:43:13;;;;;;;11.55;10.15;;;;;;;15.29;86.99;100806.56;5041701;28;20045;-62
2022/11/06 09:45:42;;;;;;;11.70;8.98;;;;;;;15.47;87.44;100804.00;5048369;28;20045;-63
2022/11/06 09:48:42;;;;;;;15.30;11.70;;;;;;;15.38;86.59;100790.66;5041260;28;20053;-63
2022/11/06 09:51:43;;;;;;;11.40;9.98;;;;;;;15.96;87.50;100796.97;5039962;28;20049;-62
2022/11/06 09:54:26;;;;;;;12.88;10.57;;;;;;;16.89;85.57;100791.94;5039642;28;20041;-62
2022/11/06 09:57:15;;;;;;;7.20;6.38;;;;;;;17.87;82.93;100779.06;5038896;28;20095;-63
2022/11/06 09:59:42;;;;;;;13.38;9.32;;;;;;;17.67;82.08;100786.88;5049312;28;20075;-61
2022/11/06 10:02:23;;;;;;;10.73;9.63;;;;;;;17.14;81.03;100784.84;5033269;28;20061;-62
2022/11/06 10:04:56;;;;;;;12.13;10.75;;;;;;;16.88;83.32;100783.78;5034081;28;20049;-63
2022/11/06 10:07:30;;;;;;;16.70;10.60;;;;;;;17.60;81.97;100780.88;5040966;28;20056;-62
2022/11/06 10:09:58;;;;;;;13.60;9.48;;;;;;;17.76;80.63;100778.50;5036808;28;20060;-62
2022/11/06 10:12:54;;;;;;;13.00;9.35;;;;;;;18.05;81.20;100792.13;5040009;28;20048;-62
2022/11/06 10:15:23;;;;;;;11.38;9.60;;;;;;;18.12;79.97;100792.50;5050236;28;20518;-62
2022/11/06 10:18:04;;;;;;;17.75;10.85;;;;;;;17.59;80.08;100776.38;5041911;28;20052;-63
2022/11/06 10:20:38;;;;;;;12.82;10.32;;;;;;;17.85;79.45;100775.75;5048415;28;20056;-63
2022/11/06 10:23:17;;;;;;;10.63;6.22;;;;;;;18.19;78.27;100787.22;5040476;28;20414;-62
2022/11/06 10:26:04;;;;;;;12.05;9.27;;;;;;;18.38;77.74;100786.09;5038718;28;20051;-62
2022/11/06 10:28:55;;;;;;;13.40;8.70;;;;;;;18.13;77.93;100791.34;5035632;28;20049;-63
2022/11/06 10:31:28;;;;;;;14.60;10.00;;;;;;;17.91;77.86;100791.38;5035956;28;20045;-62
2022/11/06 10:33:58;;;;;;;13.63;8.95;;;;;;;17.60;78.47;100791.34;5042708;28;20531;-62
2022/11/06 10:36:46;;;;;;;13.55;9.77;;;;;;;17.33;78.06;100783.81;5039394;28;20439;-61
2022/11/06 10:39:27;;;;;;;9.35;7.35;;;;;;;17.38;78.68;100783.72;5069039;28;20115;-62
2022/11/06 10:42:08;;;;;;;9.90;8.63;;;;;;;17.53;78.71;100781.31;5032895;28;20053;-62
2022/11/06 10:44:44;;;;;;;11.98;9.52;;;;;;;18.43;79.56;100781.16;5048716;28;20527;-62
2022/11/06 10:47:33;;;;;;;12.85;9.63;;;;;;;21.16;76.35;100796.88;5039511;28;20041;-62
2022/11/06 10:50:06;;;;;;;12.57;8.48;;;;;;;21.11;73.29;100803.59;5034917;28;20083;-62
2022/11/06 10:52:36;;;;;;;9.27;8.15;;;;;;;21.10;73.46;100812.47;5038211;28;20055;-62
2022/11/06 10:55:09;;;;;;;13.73;9.63;;;;;;;21.03;72.63;100807.34;5039568;28;20508;-63
2022/11/06 10:58:04;;;;;;;11.68;9.25;;;;;;;21.70;73.39;100805.44;5042236;28;20045;-63
2022/11/06 11:00:32;;;;;;;14.23;9.27;;;;;;;22.01;69.40;100811.47;5045090;28;20432;-62
2022/11/06 11:03:02;;;;;;;13.75;8.82;;;;;;;21.48;69.04;100804.66;5037777;28;20051;-62
2022/11/06 11:05:40;;;;;;;14.35;8.85;;;;;;;20.87;70.82;100804.28;5036990;28;20060;-63
2022/11/06 11:08:29;;;;;;;15.18;9.32;;;;;;;21.02;71.07;100812.16;5036095;28;20393;-62
2022/11/06 11:11:03;;;;;;;11.68;9.07;;;;;;;21.94;70.04;100807.53;5046117;28;20045;-62
2022/11/06 11:13:32;;;;;;;8.15;7.35;;;;;;;23.15;66.55;100805.97;5048075;28;20053;-61
2022/11/06 11:16:01;;;;;;;8.80;7.38;;;;;;;24.87;63.96;100816.41;5030739;28;20564;-62
2022/11/06 11:18:31;;;;;;;8.38;7.40;;;;;;;26.12;61.42;100819.13;5030474;28;20069;-62
2022/11/06 11:21:06;;;;;;;9.60;7.00;;;;;;;26.93;60.13;100809.47;5039149;28;20076;-62
2022/11/06 11:23:32;;;;;;;13.07;7.75;;;;;;;26.31;58.69;100814.56;5048186;28;20044;-62
2022/11/06 11:26:19;;;;;;;11.18;8.80;;;;;;;25.39;60.84;100817.19;5038987;28;20073;-63
2022/11/06 11:28:56;;;;;;;10.18;8.02;;;;;;;24.17;60.72;100799.94;5032387;28;20068;-63
2022/11/06 11:31:46;;;;;;;9.80;7.90;;;;;;;23.24;63.04;100808.66;5041254;28;20095;-63
2022/11/06 11:34:31;;;;;;;9.15;7.25;;;;;;;22.86;63.00;100804.19;5035892;28;20045;-63
2022/11/06 11:37:07;;;;;;;13.65;8.93;;;;;;;22.61;63.26;100799.72;5046575;28;20607;-63
2022/11/06 11:39:42;;;;;;;8.95;7.55;;;;;;;22.40;62.94;100797.81;5034956;28;20500;-61
2022/11/06 11:42:28;;;;;;;9.48;7.97;;;;;;;21.79;63.13;100806.19;5039000;28;20057;-62
2022/11/06 11:45:07;;;;;;;8.95;7.38;;;;;;;20.80;64.13;100798.31;5044365;28;20041;-64
2022/11/06 11:47:42;;;;;;;13.10;7.68;;;;;;;20.59;65.11;100799.09;5042945;28;20049;-64
2022/11/06 11:50:29;;;;;;;11.07;7.40;;;;;;;20.80;65.80;100792.63;5052052;28;20053;-62